Disney Magic — C6PT7 — position and weather

sailwx.info

Track history (hours):
 
Tides and Currents Weather Stations Pressure Air Temp Water Temp Dewpoint Dewpoint Depression Visibility Wind Speed Wind Dir Waves Ship Positions

Disney Magic

Last reported at 2014-Aug-01 23:22 UTC. Time now 2014-Aug-02 00:30 UTC.
Position N 37°47' E 025°49'.

Type: Passenger vessel. MMSI: 308516000.

Date/timePositionNaut miles runAvg speedWind from/ knotsBaromVisibWave heightAir tempDewpointWater temp
2014-Aug-01 23:22N 37°47' E 025°49'1417.5
2014-Aug-01 22:33N 37°39' E 025°33'1817.6
2014-Aug-01 21:33N 37°29' E 025°16'2117.5
2014-Aug-01 20:23N 37°33' E 024°50'1517.9
2014-Aug-01 19:33N 37°31' E 024°32'1817.5
2014-Aug-01 18:33N 37°30' E 024°10'1717.3
2014-Aug-01 17:33N 37°36' E 023°49'1818.0
2014-Aug-01 16:33N 37°50' E 023°36'6 5.9
2014-Aug-01 15:32N 37°56' E 023°38'0 0.0
2014-Aug-01 14:32N 37°56' E 023°38'0 0.0
2014-Aug-01 13:32N 37°56' E 023°38'0 0.0
2014-Aug-01 12:32N 37°56' E 023°38'0 0.0
2014-Aug-01 11:32N 37°56' E 023°38'0 0.0
2014-Aug-01 10:32N 37°56' E 023°38'0 0.0
2014-Aug-01 09:32N 37°56' E 023°38'0 0.0
2014-Aug-01 08:32N 37°56' E 023°38'0 0.0
2014-Aug-01 07:32N 37°56' E 023°38'0 0.0
2014-Aug-01 06:32N 37°56' E 023°38'0 0.0
2014-Aug-01 05:32N 37°56' E 023°38'0 0.0
2014-Aug-01 04:32N 37°56' E 023°38'1 1.4
2014-Aug-01 03:33N 37°55' E 023°37'5 5.3
2014-Aug-01 02:33N 37°51' E 023°40'1514.9
2014-Aug-01 01:33N 37°36' E 023°45'1515.2
2014-Aug-01 00:33N 37°21' E 023°48'1313.1
2014-Jul-31 23:33N 37°09' E 023°43'1514.9
2014-Jul-31 22:33N 36°55' E 023°35'1514.8
2014-Jul-31 21:33N 36°42' E 023°28'1514.8
2014-Jul-31 20:33N 36°28' E 023°20'1312.7
2014-Jul-31 19:33N 36°21' E 023°07'1313.4
2014-Jul-31 18:33N 36°23' E 022°51'9 8.7
2014-Jul-31 17:31N 36°21' E 022°40'8 7.9
2014-Jul-31 16:33N 36°19' E 022°31'49112.8
2014-Jul-30 02:17N 40°21' E 013°26'1817.8
2014-Jul-30 01:18N 40°34' E 013°10'163 6.5
2014-Jul-29 00:21N 42°24' E 010°29'3817.0
2014-Jul-28 22:08N 42°55' E 009°60'1118.7
2014-Jul-28 21:33N 43°06' E 010°02'1918.6
2014-Jul-28 20:33N 43°24' E 010°03'1818.3
2014-Jul-28 19:33N 43°41' E 009°52'1919.0
2014-Jul-28 18:33N 43°60' E 009°53'7 6.6
2014-Jul-28 17:29N 44°06' E 009°50'0 0.0
2014-Jul-28 16:32N 44°06' E 009°50'0 0.0
2014-Jul-28 15:32N 44°06' E 009°50'0 0.0
2014-Jul-28 14:32N 44°06' E 009°50'0 0.0
2014-Jul-28 13:32N 44°06' E 009°50'0 0.0
2014-Jul-28 12:29N 44°06' E 009°50'0 0.0
2014-Jul-28 11:32N 44°06' E 009°50'0 0.0
2014-Jul-28 10:32N 44°06' E 009°50'0 0.0
2014-Jul-28 09:32N 44°06' E 009°50'0 0.0
2014-Jul-28 08:32N 44°06' E 009°50'0 0.0
2014-Jul-28 07:32N 44°06' E 009°50'0 0.0
2014-Jul-28 06:32N 44°06' E 009°50'0 0.0
2014-Jul-28 05:32N 44°06' E 009°50'0 0.2
2014-Jul-28 04:34N 44°06' E 009°50'6 6.4
2014-Jul-28 03:34N 44°01' E 009°55'1110.8
2014-Jul-28 02:33N 43°55' E 009°43'1527.3
2014-Jul-28 02:00N 43°48' E 009°24'2 4.3 260 / 61011.010.8 22.018.725.0
2014-Jul-28 01:33N 43°49' E 009°26'1414.0
2014-Jul-28 00:33N 43°42' E 009°10'1413.6
2014-Jul-27 23:33N 43°40' E 008°51'1414.3
2014-Jul-27 22:34N 43°36' E 008°32'1414.4
2014-Jul-27 21:34N 43°34' E 008°12'1514.6
2014-Jul-27 20:34N 43°36' E 007°52'3 3.2
2014-Jul-27 19:33N 43°36' E 007°48'1313.0
2014-Jul-27 18:33N 43°38' E 007°30'9 8.8
2014-Jul-27 17:33N 43°41' E 007°19'0 0.0
2014-Jul-27 16:25N 43°41' E 007°19'0 0.0
2014-Jul-27 15:25N 43°41' E 007°19'0 0.0
2014-Jul-27 14:31N 43°41' E 007°19'0 0.0
2014-Jul-27 13:31N 43°41' E 007°19'0 0.0
2014-Jul-27 12:31N 43°41' E 007°19'0 0.0
2014-Jul-27 11:31N 43°41' E 007°19'0 0.0
2014-Jul-27 10:31N 43°41' E 007°19'0 0.0
2014-Jul-27 09:25N 43°41' E 007°19'0 0.0
2014-Jul-27 08:31N 43°41' E 007°19'0 0.0
2014-Jul-27 07:25N 43°41' E 007°19'0 0.0
2014-Jul-27 06:31N 43°41' E 007°19'5 5.3
2014-Jul-27 05:33N 43°37' E 007°16'1616.2
2014-Jul-27 04:33N 43°23' E 007°04'1919.5
2014-Jul-27 03:33N 43°07' E 006°49'2019.5
2014-Jul-27 02:33N 42°53' E 006°31'1918.7
2014-Jul-27 01:33N 42°45' E 006°08'2019.6
2014-Jul-27 00:33N 42°36' E 005°44'2020.0
2014-Jul-26 23:33N 42°27' E 005°20'2020.2
2014-Jul-26 22:33N 42°18' E 004°56'2321.4
2014-Jul-26 21:29N 42°07' E 004°29'1819.0
2014-Jul-26 20:33N 41°59' E 004°07'2020.2
2014-Jul-26 19:34N 41°49' E 003°43'6420.2
2014-Jul-26 16:22N 41°21' E 002°26'1214.6
2014-Jul-26 15:32N 41°19' E 002°10'3 1.4
2014-Jul-26 13:31N 41°21' E 002°11'0 0.0
2014-Jul-26 06:31N 41°21' E 002°11'0 0.0
2014-Jul-26 04:25N 41°21' E 002°11'0 0.0
2014-Jul-26 03:25N 41°21' E 002°11'2 2.2
2014-Jul-26 02:33N 41°20' E 002°10'1413.7
2014-Jul-26 01:32N 41°11' E 002°24'1818.6
2014-Jul-26 00:33N 41°01' E 002°45'1919.0
2014-Jul-25 23:33N 40°52' E 003°07'1918.9
2014-Jul-25 22:33N 40°43' E 003°29'2119.2
2014-Jul-25 21:28N 40°34' E 003°53'1819.4
2014-Jul-25 20:33N 40°24' E 004°13'1919.4
2014-Jul-25 19:33N 40°15' E 004°35'2019.6
2014-Jul-25 18:33N 40°05' E 004°58'7418.3
2014-Jul-25 14:29N 39°31' E 006°24'1819.6
2014-Jul-25 13:33N 39°24' E 006°46'6019.5
2014-Jul-25 10:29N 38°49' E 007°49'1818.7
2014-Jul-25 09:29N 38°41' E 008°10'1718.4
2014-Jul-25 08:33N 38°33' E 008°29'1918.8
2014-Jul-25 07:32N 38°25' E 008°51'1919.6
2014-Jul-25 06:33N 38°15' E 009°13'2019.6
2014-Jul-25 05:33N 38°06' E 009°35'1919.4
2014-Jul-25 04:33N 37°58' E 009°57'2019.5
2014-Jul-25 03:33N 37°49' E 010°20'2019.4
2014-Jul-25 02:32N 37°40' E 010°41'2020.5
2014-Jul-25 01:33N 37°30' E 011°04'2120.9
2014-Jul-25 00:32N 37°20' E 011°27'3 5.7
2014-Jul-25 00:00N 37°18' E 011°30'5923.0 120 / 61011.010.8 23.0 25.0
2014-Jul-24 21:25N 36°52' E 012°36'1619.0
2014-Jul-24 20:33N 36°44' E 012°55'1919.3
2014-Jul-24 19:33N 36°36' E 013°16'2019.7
2014-Jul-24 18:33N 36°27' E 013°38'2019.8
2014-Jul-24 17:33N 36°17' E 013°60'2019.7
2014-Jul-24 16:33N 36°08' E 014°21'1616.4
2014-Jul-24 15:33N 35°55' E 014°33'2 2.3
2014-Jul-24 14:33N 35°53' E 014°31'0 0.0
2014-Jul-24 13:05N 35°53' E 014°31'0 0.0
2014-Jul-24 12:26N 35°53' E 014°31'0 0.0
2014-Jul-24 11:32N 35°53' E 014°31'0 0.0
2014-Jul-24 10:33N 35°53' E 014°31'8 1.1
2014-Jul-24 03:30N 35°57' E 014°39'  
Track history (hours):
 
Tides and Currents Weather Stations Pressure Air Temp Water Temp Dewpoint Dewpoint Depression Visibility Wind Speed Wind Dir Waves Ship Positions

Disney Magic

Last reported at 2014-Aug-01 23:22 UTC. Time now 2014-Aug-02 00:30 UTC.
Position N 37°47' E 025°49'.

Type: Passenger vessel. MMSI: 308516000.

Date/timePositionNaut miles runAvg speedWind from/ knotsBaromVisibWave heightAir tempDewpointWater temp
2014-Aug-01 23:22N 37°47' E 025°49'1417.5
2014-Aug-01 22:33N 37°39' E 025°33'1817.6
2014-Aug-01 21:33N 37°29' E 025°16'2117.5
2014-Aug-01 20:23N 37°33' E 024°50'1517.9
2014-Aug-01 19:33N 37°31' E 024°32'1817.5
2014-Aug-01 18:33N 37°30' E 024°10'1717.3
2014-Aug-01 17:33N 37°36' E 023°49'1818.0
2014-Aug-01 16:33N 37°50' E 023°36'6 5.9
2014-Aug-01 15:32N 37°56' E 023°38'0 0.0
2014-Aug-01 14:32N 37°56' E 023°38'0 0.0
2014-Aug-01 13:32N 37°56' E 023°38'0 0.0
2014-Aug-01 12:32N 37°56' E 023°38'0 0.0
2014-Aug-01 11:32N 37°56' E 023°38'0 0.0
2014-Aug-01 10:32N 37°56' E 023°38'0 0.0
2014-Aug-01 09:32N 37°56' E 023°38'0 0.0
2014-Aug-01 08:32N 37°56' E 023°38'0 0.0
2014-Aug-01 07:32N 37°56' E 023°38'0 0.0
2014-Aug-01 06:32N 37°56' E 023°38'0 0.0
2014-Aug-01 05:32N 37°56' E 023°38'0 0.0
2014-Aug-01 04:32N 37°56' E 023°38'1 1.4
2014-Aug-01 03:33N 37°55' E 023°37'5 5.3
2014-Aug-01 02:33N 37°51' E 023°40'1514.9
2014-Aug-01 01:33N 37°36' E 023°45'1515.2
2014-Aug-01 00:33N 37°21' E 023°48'1313.1
2014-Jul-31 23:33N 37°09' E 023°43'1514.9
2014-Jul-31 22:33N 36°55' E 023°35'1514.8
2014-Jul-31 21:33N 36°42' E 023°28'1514.8
2014-Jul-31 20:33N 36°28' E 023°20'1312.7
2014-Jul-31 19:33N 36°21' E 023°07'1313.4
2014-Jul-31 18:33N 36°23' E 022°51'9 8.7
2014-Jul-31 17:31N 36°21' E 022°40'8 7.9
2014-Jul-31 16:33N 36°19' E 022°31'49112.8
2014-Jul-30 02:17N 40°21' E 013°26'1817.8
2014-Jul-30 01:18N 40°34' E 013°10'163 6.5
2014-Jul-29 00:21N 42°24' E 010°29'3817.0
2014-Jul-28 22:08N 42°55' E 009°60'1118.7
2014-Jul-28 21:33N 43°06' E 010°02'1918.6
2014-Jul-28 20:33N 43°24' E 010°03'1818.3
2014-Jul-28 19:33N 43°41' E 009°52'1919.0
2014-Jul-28 18:33N 43°60' E 009°53'7 6.6
2014-Jul-28 17:29N 44°06' E 009°50'0 0.0
2014-Jul-28 16:32N 44°06' E 009°50'0 0.0
2014-Jul-28 15:32N 44°06' E 009°50'0 0.0
2014-Jul-28 14:32N 44°06' E 009°50'0 0.0
2014-Jul-28 13:32N 44°06' E 009°50'0 0.0
2014-Jul-28 12:29N 44°06' E 009°50'0 0.0
2014-Jul-28 11:32N 44°06' E 009°50'0 0.0
2014-Jul-28 10:32N 44°06' E 009°50'0 0.0
2014-Jul-28 09:32N 44°06' E 009°50'0 0.0
2014-Jul-28 08:32N 44°06' E 009°50'0 0.0
2014-Jul-28 07:32N 44°06' E 009°50'0 0.0
2014-Jul-28 06:32N 44°06' E 009°50'0 0.0
2014-Jul-28 05:32N 44°06' E 009°50'0 0.2
2014-Jul-28 04:34N 44°06' E 009°50'6 6.4
2014-Jul-28 03:34N 44°01' E 009°55'1110.8
2014-Jul-28 02:33N 43°55' E 009°43'1527.3
2014-Jul-28 02:00N 43°48' E 009°24'2 4.3 260 / 61011.010.8 22.018.725.0
2014-Jul-28 01:33N 43°49' E 009°26'1414.0
2014-Jul-28 00:33N 43°42' E 009°10'1413.6
2014-Jul-27 23:33N 43°40' E 008°51'1414.3
2014-Jul-27 22:34N 43°36' E 008°32'1414.4
2014-Jul-27 21:34N 43°34' E 008°12'1514.6
2014-Jul-27 20:34N 43°36' E 007°52'3 3.2
2014-Jul-27 19:33N 43°36' E 007°48'1313.0
2014-Jul-27 18:33N 43°38' E 007°30'9 8.8
2014-Jul-27 17:33N 43°41' E 007°19'0 0.0
2014-Jul-27 16:25N 43°41' E 007°19'0 0.0
2014-Jul-27 15:25N 43°41' E 007°19'0 0.0
2014-Jul-27 14:31N 43°41' E 007°19'0 0.0
2014-Jul-27 13:31N 43°41' E 007°19'0 0.0
2014-Jul-27 12:31N 43°41' E 007°19'0 0.0
2014-Jul-27 11:31N 43°41' E 007°19'0 0.0
2014-Jul-27 10:31N 43°41' E 007°19'0 0.0
2014-Jul-27 09:25N 43°41' E 007°19'0 0.0
2014-Jul-27 08:31N 43°41' E 007°19'0 0.0
2014-Jul-27 07:25N 43°41' E 007°19'0 0.0
2014-Jul-27 06:31N 43°41' E 007°19'5 5.3
2014-Jul-27 05:33N 43°37' E 007°16'1616.2
2014-Jul-27 04:33N 43°23' E 007°04'1919.5
2014-Jul-27 03:33N 43°07' E 006°49'2019.5
2014-Jul-27 02:33N 42°53' E 006°31'1918.7
2014-Jul-27 01:33N 42°45' E 006°08'2019.6
2014-Jul-27 00:33N 42°36' E 005°44'2020.0
2014-Jul-26 23:33N 42°27' E 005°20'2020.2
2014-Jul-26 22:33N 42°18' E 004°56'2321.4
2014-Jul-26 21:29N 42°07' E 004°29'1819.0
2014-Jul-26 20:33N 41°59' E 004°07'2020.2
2014-Jul-26 19:34N 41°49' E 003°43'6420.2
2014-Jul-26 16:22N 41°21' E 002°26'1214.6
2014-Jul-26 15:32N 41°19' E 002°10'3 1.4
2014-Jul-26 13:31N 41°21' E 002°11'0 0.0
2014-Jul-26 06:31N 41°21' E 002°11'0 0.0
2014-Jul-26 04:25N 41°21' E 002°11'0 0.0
2014-Jul-26 03:25N 41°21' E 002°11'2 2.2
2014-Jul-26 02:33N 41°20' E 002°10'1413.7
2014-Jul-26 01:32N 41°11' E 002°24'1818.6
2014-Jul-26 00:33N 41°01' E 002°45'1919.0
2014-Jul-25 23:33N 40°52' E 003°07'1918.9
2014-Jul-25 22:33N 40°43' E 003°29'2119.2
2014-Jul-25 21:28N 40°34' E 003°53'1819.4
2014-Jul-25 20:33N 40°24' E 004°13'1919.4
2014-Jul-25 19:33N 40°15' E 004°35'2019.6
2014-Jul-25 18:33N 40°05' E 004°58'7418.3
2014-Jul-25 14:29N 39°31' E 006°24'1819.6
2014-Jul-25 13:33N 39°24' E 006°46'6019.5
2014-Jul-25 10:29N 38°49' E 007°49'1818.7
2014-Jul-25 09:29N 38°41' E 008°10'1718.4
2014-Jul-25 08:33N 38°33' E 008°29'1918.8
2014-Jul-25 07:32N 38°25' E 008°51'1919.6
2014-Jul-25 06:33N 38°15' E 009°13'2019.6
2014-Jul-25 05:33N 38°06' E 009°35'1919.4
2014-Jul-25 04:33N 37°58' E 009°57'2019.5
2014-Jul-25 03:33N 37°49' E 010°20'2019.4
2014-Jul-25 02:32N 37°40' E 010°41'2020.5
2014-Jul-25 01:33N 37°30' E 011°04'2120.9
2014-Jul-25 00:32N 37°20' E 011°27'3 5.7
2014-Jul-25 00:00N 37°18' E 011°30'5923.0 120 / 61011.010.8 23.0 25.0
2014-Jul-24 21:25N 36°52' E 012°36'1619.0
2014-Jul-24 20:33N 36°44' E 012°55'1919.3
2014-Jul-24 19:33N 36°36' E 013°16'2019.7
2014-Jul-24 18:33N 36°27' E 013°38'2019.8
2014-Jul-24 17:33N 36°17' E 013°60'2019.7
2014-Jul-24 16:33N 36°08' E 014°21'1616.4
2014-Jul-24 15:33N 35°55' E 014°33'2 2.3
2014-Jul-24 14:33N 35°53' E 014°31'0 0.0
2014-Jul-24 13:05N 35°53' E 014°31'0 0.0
2014-Jul-24 12:26N 35°53' E 014°31'0 0.0
2014-Jul-24 11:32N 35°53' E 014°31'0 0.0
2014-Jul-24 10:33N 35°53' E 014°31'8 1.1
2014-Jul-24 03:30N 35°57' E 014°39'  

Dump ship's entire track history